Terminal Aerodrome Forecast
Issued by NWS

Home | Current Version | Previous Version | Text Only | Print | Product List | Glossary On
Versions: 1 2 3 4 5 6 7 8 9 10 11 12 13 14 15 16 17 18 19 20 21 22 23 24
000
FTUS46 KMFR 192321
TAFLMT
TAF
KLMT 192321Z 2000/2024 23012KT P6SM SCT050 BKN090
     FM200200 29010KT P6SM -SHRA VCTS SCT040CB OVC070
     FM200600 29010KT P6SM -SHRA SCT025 OVC050
     FM201000 VRB03KT P6SM -RA SCT020 OVC040
     FM201500 32012G20KT P6SM -SHRA SCT025 OVC040
     FM202000 31014G25KT P6SM SCT025 BKN050=

USA.gov is the U.S. government's official web portal to all federal, state and local government web resources and services.